createdAt,value
2018-12-29T00:00:56.583Z,78.79
2018-12-29T00:03:26.543Z,78.92
2018-12-29T00:05:56.313Z,79.01
2018-12-29T00:08:26.492Z,79.34
2018-12-29T00:10:56.424Z,79.57
2018-12-29T00:13:26.394Z,79.84
2018-12-29T00:15:56.192Z,79.96
2018-12-29T00:18:26.054Z,80.34
2018-12-29T00:20:56.302Z,80.65
2018-12-29T00:23:26.073Z,80.67
2018-12-29T00:25:55.963Z,80.71
2018-12-29T00:28:25.818Z,80.55
2018-12-29T00:30:55.695Z,80.49
2018-12-29T00:33:25.837Z,80.61
2018-12-29T00:35:55.704Z,80.48
2018-12-29T00:38:25.584Z,80.47
2018-12-29T00:40:55.538Z,80.52
2018-12-29T00:43:25.387Z,80.66
2018-12-29T00:45:55.495Z,80.73
2018-12-29T00:48:25.430Z,80.76
2018-12-29T00:50:55.310Z,80.77
2018-12-29T00:53:25.125Z,80.69
2018-12-29T00:55:55.272Z,80.77
2018-12-29T00:58:25.156Z,80.70
2018-12-29T01:00:54.954Z,80.57
2018-12-29T01:03:24.893Z,80.51
2018-12-29T01:05:54.696Z,80.56
2018-12-29T01:08:24.674Z,80.47
2018-12-29T01:10:54.547Z,80.32
2018-12-29T01:13:24.417Z,80.51
2018-12-29T01:15:54.286Z,80.59
2018-12-29T01:18:24.398Z,80.55
2018-12-29T01:20:54.626Z,80.54
2018-12-29T01:23:24.497Z,80.49
2018-12-29T01:25:54.718Z,80.33
2018-12-29T01:28:24.578Z,80.12
2018-12-29T01:30:54.435Z,80.06
2018-12-29T01:33:24.497Z,80.12
2018-12-29T01:35:54.349Z,80.02
2018-12-29T01:38:24.353Z,79.95
2018-12-29T01:40:55.580Z,79.98
2018-12-29T01:43:25.778Z,79.88
2018-12-29T01:45:56.308Z,79.78
2018-12-29T01:48:26.545Z,79.43
2018-12-29T01:50:56.507Z,79.34
2018-12-29T01:53:26.295Z,79.29
2018-12-29T01:55:56.163Z,79.36
2018-12-29T01:58:26.033Z,79.34
2018-12-29T02:00:55.985Z,79.35
2018-12-29T02:03:25.867Z,79.54
2018-12-29T02:05:56.032Z,79.72
2018-12-29T02:08:25.999Z,79.85
2018-12-29T02:10:55.797Z,80.01
2018-12-29T02:13:25.670Z,80.11
2018-12-29T02:15:55.909Z,80.29
2018-12-29T02:18:25.807Z,80.27
2018-12-29T02:20:55.958Z,80.02
2018-12-29T02:23:25.803Z,79.91
2018-12-29T02:25:55.673Z,79.67
2018-12-29T02:28:25.533Z,79.57
2018-12-29T02:30:55.325Z,79.43
2018-12-29T02:33:25.142Z,79.35
2018-12-29T02:35:54.988Z,79.18
2018-12-29T02:38:24.866Z,78.99
2018-12-29T02:40:54.732Z,78.97
2018-12-29T02:43:24.584Z,79.08
2018-12-29T02:45:54.557Z,79.14
2018-12-29T02:48:25.519Z,79.01
2018-12-29T02:50:55.407Z,78.80
2018-12-29T02:53:25.303Z,78.87
2018-12-29T02:55:55.246Z,79.09
2018-12-29T02:58:25.204Z,79.18
2018-12-29T03:00:55.013Z,79.05
2018-12-29T03:03:25.207Z,78.83
2018-12-29T03:05:55.131Z,78.87
2018-12-29T03:08:24.988Z,79.20
2018-12-29T03:10:54.933Z,79.11
2018-12-29T03:13:24.802Z,79.08
2018-12-29T03:15:54.681Z,78.98
2018-12-29T03:18:24.791Z,79.07
2018-12-29T03:20:54.923Z,79.18
2018-12-29T03:23:24.817Z,79.41
2018-12-29T03:25:54.714Z,79.60
2018-12-29T03:28:24.871Z,79.87
2018-12-29T03:30:54.678Z,79.85
2018-12-29T03:33:24.553Z,79.48
2018-12-29T03:35:54.564Z,79.58
2018-12-29T03:38:24.538Z,79.61
2018-12-29T03:40:54.497Z,79.45
2018-12-29T03:43:24.375Z,79.37
2018-12-29T03:45:54.570Z,79.35
2018-12-29T03:48:24.367Z,79.37
2018-12-29T03:50:54.239Z,79.72
2018-12-29T03:53:24.112Z,80.00
2018-12-29T03:55:53.901Z,80.18
2018-12-29T03:58:23.759Z,80.60
2018-12-29T04:00:53.622Z,80.87
2018-12-29T04:03:23.417Z,80.83
2018-12-29T04:05:53.638Z,80.89
2018-12-29T04:08:23.693Z,81.10
2018-12-29T04:10:53.559Z,81.19
2018-12-29T04:13:23.478Z,81.20
2018-12-29T04:15:58.061Z,81.19
2018-12-29T04:18:25.023Z,81.22
2018-12-29T04:20:55.097Z,81.25
2018-12-29T04:23:25.220Z,81.34
2018-12-29T04:25:55.075Z,81.57
2018-12-29T04:28:24.937Z,81.70
2018-12-29T04:30:54.743Z,81.68
2018-12-29T04:33:24.695Z,81.82
2018-12-29T04:35:54.519Z,82.11
2018-12-29T04:38:24.325Z,82.24
2018-12-29T04:40:54.652Z,82.50
2018-12-29T04:43:24.523Z,82.52
2018-12-29T04:45:54.765Z,82.40
2018-12-29T04:48:24.657Z,82.16
2018-12-29T04:50:54.549Z,82.22
2018-12-29T04:53:24.457Z,82.23
2018-12-29T04:55:54.333Z,82.19
2018-12-29T04:58:24.196Z,82.18
2018-12-29T05:00:54.044Z,82.28
2018-12-29T05:03:23.836Z,82.40
2018-12-29T05:05:53.957Z,82.52
2018-12-29T05:08:23.761Z,82.52
2018-12-29T05:10:53.552Z,82.57
2018-12-29T05:13:23.350Z,82.71
2018-12-29T05:15:53.129Z,82.78
2018-12-29T05:18:23.292Z,82.88
2018-12-29T05:20:53.463Z,82.98
2018-12-29T05:23:23.440Z,82.98
2018-12-29T05:25:53.299Z,82.94
2018-12-29T05:28:23.275Z,82.95
2018-12-29T05:30:53.231Z,82.92
2018-12-29T05:33:23.038Z,82.89
2018-12-29T05:35:52.868Z,83.02
2018-12-29T05:38:22.691Z,83.14
2018-12-29T05:40:52.844Z,83.22
2018-12-29T05:43:22.967Z,83.18
2018-12-29T05:45:52.843Z,83.18
2018-12-29T05:48:22.726Z,83.03
2018-12-29T05:50:52.832Z,83.26
2018-12-29T05:53:22.781Z,83.50
2018-12-29T05:55:52.735Z,83.61
2018-12-29T05:58:22.706Z,83.46
2018-12-29T06:00:52.539Z,83.56
2018-12-29T06:03:22.503Z,83.46
2018-12-29T06:05:52.299Z,83.39
2018-12-29T06:08:23.247Z,83.52
2018-12-29T06:10:53.171Z,83.50
2018-12-29T06:13:23.297Z,83.57
2018-12-29T06:15:53.115Z,83.61
2018-12-29T06:18:22.969Z,83.67
2018-12-29T06:20:52.840Z,83.75
2018-12-29T06:23:22.776Z,83.73
2018-12-29T06:25:52.725Z,83.64
2018-12-29T06:28:22.510Z,83.66
2018-12-29T06:30:52.399Z,83.60
2018-12-29T06:33:22.644Z,83.72
2018-12-29T06:35:52.815Z,83.75
2018-12-29T06:38:22.742Z,83.80
2018-12-29T06:40:52.890Z,83.91
2018-12-29T06:43:22.769Z,83.89
2018-12-29T06:45:52.717Z,83.86
2018-12-29T06:48:22.541Z,83.85
2018-12-29T06:50:52.730Z,83.77
2018-12-29T06:53:22.984Z,83.90
2018-12-29T06:55:52.856Z,83.98
2018-12-29T06:58:22.737Z,84.12
2018-12-29T07:00:52.612Z,84.25
2018-12-29T07:03:22.710Z,84.16
2018-12-29T07:05:52.595Z,84.19
2018-12-29T07:08:22.370Z,84.30
2018-12-29T07:10:52.323Z,84.24
2018-12-29T07:13:22.874Z,84.29
2018-12-29T07:15:53.033Z,84.36
2018-12-29T07:18:23.606Z,84.44
2018-12-29T07:20:53.772Z,84.51
2018-12-29T07:23:23.849Z,84.42
2018-12-29T07:25:53.722Z,84.52
2018-12-29T07:28:23.665Z,84.70
2018-12-29T07:30:53.480Z,84.84
2018-12-29T07:33:23.294Z,84.92
2018-12-29T07:35:53.337Z,84.91
2018-12-29T07:38:23.977Z,84.87
2018-12-29T07:40:54.087Z,84.85
2018-12-29T07:43:23.886Z,84.88
2018-12-29T07:45:54.021Z,85.06
2018-12-29T07:48:23.889Z,85.10
2018-12-29T07:50:53.766Z,85.16
2018-12-29T07:53:23.653Z,85.23
2018-12-29T07:55:53.779Z,85.26
2018-12-29T07:58:23.895Z,85.38
2018-12-29T08:00:53.771Z,85.36
2018-12-29T08:03:23.931Z,85.34
2018-12-29T08:05:54.187Z,85.39
2018-12-29T08:08:23.988Z,85.45
2018-12-29T08:10:53.841Z,85.45
2018-12-29T08:13:23.732Z,85.35
2018-12-29T08:15:54.014Z,85.38
2018-12-29T08:18:23.894Z,85.41
2018-12-29T08:20:53.909Z,85.40
2018-12-29T08:23:24.969Z,85.43
2018-12-29T08:25:54.842Z,85.46
2018-12-29T08:28:24.770Z,85.30
2018-12-29T08:30:54.946Z,85.21
2018-12-29T08:33:24.826Z,85.16
2018-12-29T08:35:55.689Z,85.16
2018-12-29T08:38:25.630Z,85.11
2018-12-29T08:40:55.415Z,85.14
2018-12-29T08:43:26.953Z,85.17
2018-12-29T08:45:56.766Z,85.14
2018-12-29T08:48:26.577Z,85.10
2018-12-29T08:50:56.525Z,85.17
2018-12-29T08:53:26.385Z,85.21
2018-12-29T08:55:56.251Z,85.25
2018-12-29T08:58:26.109Z,85.31
2018-12-29T09:00:55.971Z,85.29
2018-12-29T09:03:26.155Z,85.28
2018-12-29T09:05:55.947Z,85.36
2018-12-29T09:08:26.141Z,85.34
2018-12-29T09:10:56.034Z,85.42
2018-12-29T09:13:25.914Z,85.52
2018-12-29T09:15:55.722Z,85.57
2018-12-29T09:18:25.684Z,85.50
2018-12-29T09:20:55.883Z,85.47
2018-12-29T09:23:25.877Z,85.46
2018-12-29T09:25:55.803Z,85.43
2018-12-29T09:28:25.761Z,85.43
2018-12-29T09:30:55.715Z,85.46
2018-12-29T09:33:25.510Z,85.57
2018-12-29T09:35:56.322Z,85.57
2018-12-29T09:38:26.376Z,85.54
2018-12-29T09:40:56.496Z,85.54
2018-12-29T09:43:26.744Z,85.57
2018-12-29T09:45:56.625Z,85.61
2018-12-29T09:48:26.664Z,85.58
2018-12-29T09:50:56.593Z,85.59
2018-12-29T09:53:26.887Z,85.63
2018-12-29T09:55:56.720Z,85.59
2018-12-29T09:58:26.580Z,85.58
2018-12-29T10:00:56.770Z,85.58
2018-12-29T10:03:26.676Z,85.64
2018-12-29T10:05:56.550Z,85.68
2018-12-29T10:08:26.692Z,85.69
2018-12-29T10:10:56.630Z,85.64
2018-12-29T10:13:26.597Z,85.67
2018-12-29T10:15:56.475Z,85.59
2018-12-29T10:18:26.795Z,85.63
2018-12-29T10:20:56.897Z,85.56
2018-12-29T10:23:27.859Z,85.62
2018-12-29T10:25:58.067Z,85.70
2018-12-29T10:28:28.028Z,85.69
2018-12-29T10:30:58.193Z,85.77
2018-12-29T10:33:28.001Z,85.82
2018-12-29T10:35:58.455Z,85.85
2018-12-29T10:38:28.340Z,85.92
2018-12-29T10:40:58.206Z,85.97
2018-12-29T10:43:28.321Z,86.03
2018-12-29T10:45:59.345Z,86.01
2018-12-29T10:48:29.382Z,86.12
2018-12-29T10:50:59.342Z,86.17
2018-12-29T10:53:29.126Z,86.24
2018-12-29T10:55:59.081Z,86.20
2018-12-29T10:58:29.197Z,86.25
2018-12-29T11:00:59.067Z,86.29
2018-12-29T11:03:29.130Z,86.30
2018-12-29T11:05:59.042Z,86.22
2018-12-29T11:08:28.973Z,86.24
2018-12-29T11:10:58.839Z,86.22
2018-12-29T11:13:28.796Z,86.13
2018-12-29T11:15:58.700Z,86.07
2018-12-29T11:18:28.472Z,86.14
2018-12-29T11:20:58.356Z,86.26
2018-12-29T11:23:28.162Z,86.39
2018-12-29T11:25:58.362Z,86.50
2018-12-29T11:28:28.255Z,86.57
2018-12-29T11:30:58.046Z,86.52
2018-12-29T11:33:28.276Z,86.42
2018-12-29T11:35:58.084Z,86.58
2018-12-29T11:38:27.932Z,86.63
2018-12-29T11:40:57.883Z,86.56
2018-12-29T11:43:27.678Z,86.40
2018-12-29T11:45:57.629Z,86.39
2018-12-29T11:48:27.475Z,86.30
2018-12-29T11:50:57.367Z,86.31
2018-12-29T11:53:27.244Z,86.31
2018-12-29T11:55:57.374Z,86.13
2018-12-29T11:58:27.308Z,85.87
2018-12-29T12:00:57.197Z,85.91
2018-12-29T12:03:27.648Z,85.81
2018-12-29T12:05:57.918Z,85.95
2018-12-29T12:08:27.805Z,86.08
2018-12-29T12:10:58.592Z,86.09
2018-12-29T12:13:28.396Z,86.01
2018-12-29T12:15:58.900Z,86.06
2018-12-29T12:18:28.709Z,86.00
2018-12-29T12:20:59.256Z,85.96
2018-12-29T12:23:29.498Z,86.07
2018-12-29T12:25:59.436Z,86.18
2018-12-29T12:28:30.389Z,86.33
2018-12-29T12:31:00.261Z,86.45
2018-12-29T12:33:30.480Z,86.34
2018-12-29T12:36:00.374Z,86.41
2018-12-29T12:38:30.291Z,86.29
2018-12-29T12:41:00.392Z,86.09
2018-12-29T12:43:30.512Z,86.22
2018-12-29T12:46:01.021Z,86.46
2018-12-29T12:48:31.961Z,86.63
2018-12-29T12:51:02.177Z,86.67
2018-12-29T12:53:32.331Z,86.66
2018-12-29T12:56:02.261Z,86.49
2018-12-29T12:58:33.307Z,86.60
2018-12-29T13:01:03.762Z,86.62
2018-12-29T13:03:34.097Z,86.53
2018-12-29T13:06:03.992Z,86.52
2018-12-29T13:08:33.804Z,86.46
2018-12-29T13:11:04.178Z,86.54
2018-12-29T13:13:34.302Z,86.58
2018-12-29T13:16:04.257Z,86.48
2018-12-29T13:18:35.282Z,86.46
2018-12-29T13:21:05.277Z,86.43
2018-12-29T13:23:35.504Z,86.36
2018-12-29T13:26:05.836Z,86.29
2018-12-29T13:28:36.035Z,86.31
2018-12-29T13:31:05.926Z,86.36
2018-12-29T13:33:35.907Z,86.51
2018-12-29T13:36:07.770Z,86.63
2018-12-29T13:38:37.925Z,86.74
2018-12-29T13:41:07.866Z,86.79
2018-12-29T13:43:37.748Z,86.83
2018-12-29T13:46:07.849Z,86.92
2018-12-29T13:48:38.092Z,87.08
2018-12-29T13:51:08.021Z,87.14
2018-12-29T13:53:37.880Z,87.18
2018-12-29T13:56:08.260Z,87.24
2018-12-29T13:58:38.690Z,87.40
2018-12-29T14:01:08.667Z,87.55
2018-12-29T14:03:38.937Z,87.69
2018-12-29T14:06:09.159Z,87.75
2018-12-29T14:08:40.411Z,87.85
2018-12-29T14:11:10.334Z,87.90
2018-12-29T14:13:40.419Z,87.81
2018-12-29T14:16:10.266Z,87.73
2018-12-29T14:18:40.475Z,87.61
2018-12-29T14:21:10.922Z,87.56
2018-12-29T14:23:40.764Z,86.85
2018-12-29T14:26:10.930Z,86.42
2018-12-29T14:28:40.886Z,85.66
2018-12-29T14:31:11.092Z,85.35
2018-12-29T14:33:40.946Z,85.23
2018-12-29T14:36:11.303Z,84.96
2018-12-29T14:38:41.156Z,84.43
2018-12-29T14:41:11.022Z,84.23
2018-12-29T14:43:41.258Z,84.00
2018-12-29T14:46:11.221Z,83.47
2018-12-29T14:48:41.083Z,83.36
2018-12-29T14:51:10.981Z,83.29
2018-12-29T14:53:41.220Z,83.27
2018-12-29T14:56:11.019Z,83.36
2018-12-29T14:58:40.895Z,83.43
2018-12-29T15:01:10.695Z,83.49
2018-12-29T15:03:40.493Z,83.48
2018-12-29T15:06:11.182Z,83.53
2018-12-29T15:08:41.213Z,83.41
2018-12-29T15:11:11.089Z,83.44
2018-12-29T15:13:40.972Z,83.30
2018-12-29T15:16:10.824Z,83.29
2018-12-29T15:18:43.808Z,83.12
2018-12-29T15:21:12.280Z,83.13
2018-12-29T15:23:42.073Z,83.27
2018-12-29T15:26:12.143Z,83.30
2018-12-29T15:28:42.017Z,83.41
2018-12-29T15:31:11.860Z,83.37
2018-12-29T15:33:42.712Z,83.43
2018-12-29T15:36:16.150Z,83.38
2018-12-29T15:38:44.051Z,83.27
2018-12-29T15:41:13.893Z,83.28
2018-12-29T15:43:43.676Z,83.35
2018-12-29T15:46:13.600Z,83.41
2018-12-29T15:48:50.959Z,83.43
2018-12-29T15:51:15.085Z,83.44
2018-12-29T15:53:44.879Z,83.54
2018-12-29T15:56:15.223Z,83.68
2018-12-29T15:58:44.994Z,83.95
2018-12-29T16:01:15.457Z,84.05
2018-12-29T16:03:45.661Z,84.53
2018-12-29T16:06:15.463Z,85.19
2018-12-29T16:08:45.246Z,85.77
2018-12-29T16:11:15.026Z,86.36
2018-12-29T16:13:45.174Z,86.98
2018-12-29T16:16:15.150Z,87.58
2018-12-29T16:18:45.001Z,88.21
2018-12-29T16:21:14.817Z,88.63
2018-12-29T16:23:44.666Z,89.05
2018-12-29T16:26:14.607Z,89.50
2018-12-29T16:28:44.804Z,89.87
2018-12-29T16:31:14.732Z,90.32
2018-12-29T16:33:44.604Z,90.44
2018-12-29T16:36:14.752Z,91.06
2018-12-29T16:38:44.534Z,91.75
2018-12-29T16:41:14.380Z,92.16
2018-12-29T16:43:44.709Z,91.94
2018-12-29T16:46:14.482Z,92.08
2018-12-29T16:48:44.352Z,92.17
2018-12-29T16:51:14.208Z,92.37
2018-12-29T16:53:44.574Z,92.39
2018-12-29T16:56:14.427Z,92.43
2018-12-29T16:58:44.217Z,92.76
2018-12-29T17:01:14.077Z,92.98
2018-12-29T17:03:44.545Z,93.06
2018-12-29T17:06:14.480Z,93.47
2018-12-29T17:08:44.417Z,94.04
2018-12-29T17:11:14.403Z,94.02
2018-12-29T17:13:44.972Z,94.03
2018-12-29T17:16:15.142Z,94.20
2018-12-29T17:18:45.605Z,94.25
2018-12-29T17:21:15.455Z,94.19
2018-12-29T17:23:45.432Z,94.46
2018-12-29T17:26:15.231Z,94.54
2018-12-29T17:28:45.028Z,94.73
2018-12-29T17:31:15.294Z,94.79
2018-12-29T17:33:45.360Z,94.64
2018-12-29T17:36:15.605Z,94.56
2018-12-29T17:38:45.423Z,94.75
2018-12-29T17:41:15.396Z,94.64
2018-12-29T17:43:45.487Z,94.73
2018-12-29T17:46:15.395Z,94.71
2018-12-29T17:48:45.278Z,94.67
2018-12-29T17:51:15.254Z,94.58
2018-12-29T17:53:48.209Z,94.65
2018-12-29T17:56:17.028Z,94.53
2018-12-29T17:58:46.946Z,94.56
2018-12-29T18:01:16.796Z,94.65
2018-12-29T18:03:46.699Z,94.69
2018-12-29T18:06:16.545Z,94.64
2018-12-29T18:08:46.425Z,94.57
2018-12-29T18:11:16.365Z,94.59
2018-12-29T18:13:46.449Z,94.63
2018-12-29T18:16:16.698Z,94.67
2018-12-29T18:18:46.556Z,94.73
2018-12-29T18:21:16.449Z,94.62
2018-12-29T18:23:46.329Z,94.58
2018-12-29T18:26:16.665Z,94.36
2018-12-29T18:28:46.497Z,94.13
2018-12-29T18:31:16.607Z,94.00
2018-12-29T18:33:47.243Z,93.96
2018-12-29T18:36:17.635Z,94.11
2018-12-29T18:38:49.237Z,94.30
2018-12-29T18:41:19.408Z,94.46
2018-12-29T18:43:49.452Z,94.41
2018-12-29T18:46:19.600Z,94.43
2018-12-29T18:48:50.282Z,94.37
2018-12-29T18:51:22.482Z,94.41
2018-12-29T18:53:52.508Z,94.35
2018-12-29T18:56:22.592Z,94.46
2018-12-29T18:58:52.906Z,94.47
2018-12-29T19:01:22.977Z,94.43
2018-12-29T19:03:55.109Z,94.49
2018-12-29T19:06:25.405Z,94.51
2018-12-29T19:08:55.198Z,94.49
2018-12-29T19:11:25.183Z,94.54
2018-12-29T19:13:55.133Z,94.55
2018-12-29T19:16:25.372Z,94.60
2018-12-29T19:18:55.227Z,94.63
2018-12-29T19:21:25.809Z,94.61
2018-12-29T19:23:56.242Z,94.50
2018-12-29T19:26:26.853Z,94.53
2018-12-29T19:28:57.230Z,94.65
2018-12-29T19:31:27.025Z,94.65
2018-12-29T19:33:57.223Z,94.70
2018-12-29T19:36:27.249Z,94.84
2018-12-29T19:38:57.035Z,94.80
2018-12-29T19:41:27.172Z,94.86
2018-12-29T19:43:57.819Z,94.84
2018-12-29T19:46:27.963Z,94.88
2018-12-29T19:48:57.758Z,94.99
2018-12-29T19:51:28.378Z,94.99
2018-12-29T19:53:58.486Z,94.99
2018-12-29T19:56:28.393Z,94.96
2018-12-29T19:58:58.654Z,94.99
2018-12-29T20:01:28.841Z,95.00
2018-12-29T20:03:59.016Z,95.01
2018-12-29T20:06:28.876Z,95.04
2018-12-29T20:08:58.742Z,95.06
2018-12-29T20:11:29.117Z,95.08
2018-12-29T20:13:58.991Z,95.08
2018-12-29T20:16:29.521Z,95.04
2018-12-29T20:18:59.309Z,94.99
2018-12-29T20:21:29.519Z,95.00
2018-12-29T20:23:59.713Z,95.11
2018-12-29T20:26:29.622Z,95.15
2018-12-29T20:28:59.590Z,95.22
2018-12-29T20:31:29.765Z,95.17
2018-12-29T20:33:59.548Z,95.20
2018-12-29T20:36:29.442Z,95.32
2018-12-29T20:38:59.502Z,95.29
2018-12-29T20:41:29.610Z,95.17
2018-12-29T20:43:59.411Z,95.13
2018-12-29T20:46:29.799Z,95.17
2018-12-29T20:48:59.818Z,95.11
2018-12-29T20:51:30.509Z,95.05
2018-12-29T20:54:00.376Z,94.95
2018-12-29T20:56:30.250Z,94.89
2018-12-29T20:59:00.354Z,94.91
2018-12-29T21:01:32.071Z,94.91
2018-12-29T21:04:02.662Z,94.78
2018-12-29T21:06:32.748Z,94.75
2018-12-29T21:09:03.232Z,94.71
2018-12-29T21:11:34.519Z,94.66
2018-12-29T21:14:04.670Z,94.69
2018-12-29T21:16:35.166Z,94.64
2018-12-29T21:19:05.126Z,94.48
2018-12-29T21:21:35.843Z,94.41
2018-12-29T21:24:12.148Z,94.29
2018-12-29T21:26:38.042Z,94.28
2018-12-29T21:29:08.441Z,94.32
2018-12-29T21:31:38.706Z,94.30
2018-12-29T21:34:08.849Z,94.18
2018-12-29T21:36:39.134Z,94.14
2018-12-29T21:39:09.410Z,94.10
2018-12-29T21:41:39.550Z,94.08
2018-12-29T21:44:09.361Z,93.88
2018-12-29T21:46:39.366Z,93.58
2018-12-29T21:49:09.675Z,93.56
2018-12-29T21:51:39.581Z,93.30
2018-12-29T21:54:09.546Z,93.02
2018-12-29T21:56:42.561Z,92.80
2018-12-29T21:59:12.407Z,92.35
2018-12-29T22:01:42.413Z,92.09
2018-12-29T22:04:12.783Z,91.75
2018-12-29T22:06:43.212Z,91.63
2018-12-29T22:09:13.241Z,91.34
2018-12-29T22:11:43.443Z,91.11
2018-12-29T22:14:13.338Z,91.00
2018-12-29T22:16:43.145Z,90.85
2018-12-29T22:19:13.128Z,90.45
2018-12-29T22:21:42.922Z,90.09
2018-12-29T22:24:12.698Z,89.64
2018-12-29T22:26:43.044Z,89.39
2018-12-29T22:29:12.952Z,89.00
2018-12-29T22:31:42.806Z,88.80
2018-12-29T22:34:12.662Z,88.36
2018-12-29T22:36:42.649Z,88.05
2018-12-29T22:39:13.788Z,88.00
2018-12-29T22:41:43.920Z,88.40
2018-12-29T22:44:13.842Z,87.47
2018-12-29T22:46:43.706Z,87.06
2018-12-29T22:49:13.921Z,87.30
2018-12-29T22:51:43.823Z,86.99
2018-12-29T22:54:13.986Z,86.91
2018-12-29T22:56:44.460Z,86.69
2018-12-29T22:59:14.411Z,86.32
2018-12-29T23:01:44.338Z,85.04
2018-12-29T23:04:14.404Z,83.31
2018-12-29T23:06:44.223Z,83.71
2018-12-29T23:09:14.538Z,83.29
2018-12-29T23:11:44.527Z,83.01
2018-12-29T23:14:14.463Z,82.46
2018-12-29T23:16:44.383Z,82.93
2018-12-29T23:19:14.255Z,82.91
2018-12-29T23:22:03.352Z,82.31
2018-12-29T23:24:33.261Z,82.21
2018-12-29T23:27:03.147Z,81.84
2018-12-29T23:29:33.024Z,81.76
2018-12-29T23:32:02.887Z,81.14
2018-12-29T23:34:33.140Z,80.34
2018-12-29T23:37:03.126Z,81.05
2018-12-29T23:39:32.956Z,81.20
2018-12-29T23:42:03.006Z,81.56
2018-12-29T23:44:32.824Z,81.53
2018-12-29T23:47:02.840Z,81.15
2018-12-29T23:49:33.713Z,80.56
2018-12-29T23:52:04.051Z,80.32
2018-12-29T23:54:34.018Z,79.99
2018-12-29T23:57:03.991Z,80.16
2018-12-29T23:59:34.698Z,80.48
